Portada
METAR-TAF:

METAR-TAF

Aeroports :

Aeroport Internacional Maiquetía Simón Bolívar

Caracas, Veneçuela

latitud: 10-36N, longitud: 066-59W, altitud: 43 m

Observació

L'informe es va fer fa 1 hora i 16 minuts, a les 15:00 UTC
Vent 2 kt del Est
Temperatura 27°C
Humitat 74%
Pressió 1012 hPa
Visibilitat 10 km o més
Cel ennuvolat a una alçada de 1600 ft

METAR: SVMI 201500Z 09002KT 9999 BKN016 27/22 Q1012

Hora: 12:16 (16:16 UTC)

Pronòstic

L'informe es va fer fa 6 hores i 16 minuts, a les 10:00 UTC
Pronòstic vàlid del 20 a les 12 UTC al 21 a les 12 UTC
Vent 12 kt del Sud/Sud-Est
Visibilitat 10 km o més
Escasses núvols a una alçada de 1600 ft
Temporalment
l' 20 a les 12 UTC al 20 a les 16 UTC
Vent 7 kt del Est/Nord-Est
Visibilitat: 9000 m
Núvols disperses a una alçada de 2000 ft
plugim

TAF: SVMI 201000Z 2012/2112 15012KT 9999 FEW016 TX28/2019Z TN23/2104Z TEMPO 2012/2016 07007KT 9000 DZ SCT020

Observacions i pronòstics meteorològics de més de 4000 aeroports (METAR i TAF).

Les estacions disponibles són els punts grocs i vermells al mapa.

Posi el ratolí al punt desitjat per veure el nom de l'estació.

Feu clic per veure les observacions i els pronòstics meteorològics.

Per canviar el mapa: feu clic els botons verds amb una creu de color negre per apropar; al botó verd amb un guió per allunyar la imatge; o en les fletxes verdes per a mapes adjacents.


METAR-TAF: